Terminal Aerodrome Forecast
Issued by NWS Glasgow, MT

Home | Current Version | Previous Version | Text Only | Print | Product List | Glossary On
Versions: 1 2 3 4 5 6 7 8 9 10 11 12 13
481
FTUS45 KGGW 211720
TAFGGW
TAF
KGGW 211720Z 2118/2218 VRB05KT P6SM FEW210
     FM220400 14004KT 3SM BR FEW030
     FM221500 14004KT P6SM OVC200=

USA.gov is the U.S. government's official web portal to all federal, state and local government web resources and services.